sensor_id;sensor_type;location;lat;lon;timestamp;temperature;humidity
13982;DHT22;7065;50.880;5.502;2023-11-19T00:00:20;12.20;99.90
13982;DHT22;7065;50.880;5.502;2023-11-19T00:02:46;12.20;99.90
13982;DHT22;7065;50.880;5.502;2023-11-19T00:05:13;12.20;99.90
13982;DHT22;7065;50.880;5.502;2023-11-19T00:07:40;12.20;99.90
13982;DHT22;7065;50.880;5.502;2023-11-19T00:10:13;12.20;99.90
13982;DHT22;7065;50.880;5.502;2023-11-19T00:12:41;12.20;99.90
13982;DHT22;7065;50.880;5.502;2023-11-19T00:15:08;12.20;99.90
13982;DHT22;7065;50.880;5.502;2023-11-19T00:17:38;12.20;99.90
13982;DHT22;7065;50.880;5.502;2023-11-19T00:20:06;12.20;99.90
13982;DHT22;7065;50.880;5.502;2023-11-19T00:22:32;12.20;99.90
13982;DHT22;7065;50.880;5.502;2023-11-19T00:24:58;12.20;99.90
13982;DHT22;7065;50.880;5.502;2023-11-19T00:27:25;12.20;99.90
13982;DHT22;7065;50.880;5.502;2023-11-19T00:29:51;12.30;99.90
13982;DHT22;7065;50.880;5.502;2023-11-19T00:32:17;12.30;99.90
13982;DHT22;7065;50.880;5.502;2023-11-19T00:34:46;12.30;99.90
13982;DHT22;7065;50.880;5.502;2023-11-19T00:37:15;12.40;99.90
13982;DHT22;7065;50.880;5.502;2023-11-19T00:39:44;12.30;99.90
13982;DHT22;7065;50.880;5.502;2023-11-19T00:42:11;12.40;99.90
13982;DHT22;7065;50.880;5.502;2023-11-19T00:44:36;12.40;99.90
13982;DHT22;7065;50.880;5.502;2023-11-19T00:47:03;12.50;99.90
13982;DHT22;7065;50.880;5.502;2023-11-19T00:49:29;12.50;99.90
13982;DHT22;7065;50.880;5.502;2023-11-19T00:51:54;12.60;99.90
13982;DHT22;7065;50.880;5.502;2023-11-19T00:54:20;12.60;99.90
13982;DHT22;7065;50.880;5.502;2023-11-19T00:56:46;12.70;99.90
13982;DHT22;7065;50.880;5.502;2023-11-19T00:59:12;12.70;99.90
13982;DHT22;7065;50.880;5.502;2023-11-19T01:01:37;12.70;99.90
13982;DHT22;7065;50.880;5.502;2023-11-19T01:04:03;12.80;99.90
13982;DHT22;7065;50.880;5.502;2023-11-19T01:06:30;12.70;99.90
13982;DHT22;7065;50.880;5.502;2023-11-19T01:08:56;12.80;99.90
13982;DHT22;7065;50.880;5.502;2023-11-19T01:11:23;12.80;99.90
13982;DHT22;7065;50.880;5.502;2023-11-19T01:13:49;12.80;99.90
13982;DHT22;7065;50.880;5.502;2023-11-19T01:16:15;12.80;99.90
13982;DHT22;7065;50.880;5.502;2023-11-19T01:18:41;12.90;99.90
13982;DHT22;7065;50.880;5.502;2023-11-19T01:21:07;12.90;99.90
13982;DHT22;7065;50.880;5.502;2023-11-19T01:23:34;13.00;99.90
13982;DHT22;7065;50.880;5.502;2023-11-19T01:26:00;12.90;99.90
13982;DHT22;7065;50.880;5.502;2023-11-19T01:28:26;13.00;99.90
13982;DHT22;7065;50.880;5.502;2023-11-19T01:30:52;13.00;99.90
13982;DHT22;7065;50.880;5.502;2023-11-19T01:33:18;13.10;99.90
13982;DHT22;7065;50.880;5.502;2023-11-19T01:35:44;13.10;99.90
13982;DHT22;7065;50.880;5.502;2023-11-19T01:38:09;13.10;99.90
13982;DHT22;7065;50.880;5.502;2023-11-19T01:40:36;13.00;99.90
13982;DHT22;7065;50.880;5.502;2023-11-19T01:43:02;13.00;99.90
13982;DHT22;7065;50.880;5.502;2023-11-19T01:45:30;13.00;99.90
13982;DHT22;7065;50.880;5.502;2023-11-19T01:48:01;13.00;99.90
13982;DHT22;7065;50.880;5.502;2023-11-19T01:50:30;13.00;99.90
13982;DHT22;7065;50.880;5.502;2023-11-19T01:52:57;13.00;99.90
13982;DHT22;7065;50.880;5.502;2023-11-19T01:55:24;13.00;99.90
13982;DHT22;7065;50.880;5.502;2023-11-19T01:57:51;13.00;99.90
13982;DHT22;7065;50.880;5.502;2023-11-19T02:00:18;13.00;99.90
13982;DHT22;7065;50.880;5.502;2023-11-19T02:02:46;13.00;99.90
13982;DHT22;7065;50.880;5.502;2023-11-19T02:05:14;13.00;99.90
13982;DHT22;7065;50.880;5.502;2023-11-19T02:07:40;13.00;99.90
13982;DHT22;7065;50.880;5.502;2023-11-19T02:10:06;13.00;99.90
13982;DHT22;7065;50.880;5.502;2023-11-19T02:12:38;13.00;99.90
13982;DHT22;7065;50.880;5.502;2023-11-19T02:15:09;13.10;99.90
13982;DHT22;7065;50.880;5.502;2023-11-19T02:17:35;13.10;99.90
13982;DHT22;7065;50.880;5.502;2023-11-19T02:20:03;13.10;99.90
13982;DHT22;7065;50.880;5.502;2023-11-19T02:22:32;13.10;99.90
13982;DHT22;7065;50.880;5.502;2023-11-19T02:25:04;13.00;99.90
13982;DHT22;7065;50.880;5.502;2023-11-19T02:27:52;13.00;99.90
13982;DHT22;7065;50.880;5.502;2023-11-19T02:30:21;13.10;99.90
13982;DHT22;7065;50.880;5.502;2023-11-19T02:32:58;13.00;99.90
13982;DHT22;7065;50.880;5.502;2023-11-19T02:35:26;13.00;99.90
13982;DHT22;7065;50.880;5.502;2023-11-19T02:37:52;13.00;99.90
13982;DHT22;7065;50.880;5.502;2023-11-19T02:40:18;13.10;99.90
13982;DHT22;7065;50.880;5.502;2023-11-19T02:42:44;13.10;99.90
13982;DHT22;7065;50.880;5.502;2023-11-19T02:45:09;13.20;99.90
13982;DHT22;7065;50.880;5.502;2023-11-19T02:47:43;13.20;99.90
13982;DHT22;7065;50.880;5.502;2023-11-19T02:50:10;13.10;99.90
13982;DHT22;7065;50.880;5.502;2023-11-19T02:52:44;13.10;99.90
13982;DHT22;7065;50.880;5.502;2023-11-19T02:55:12;13.10;99.90
13982;DHT22;7065;50.880;5.502;2023-11-19T02:57:41;13.10;99.90
13982;DHT22;7065;50.880;5.502;2023-11-19T03:00:22;13.00;99.90
13982;DHT22;7065;50.880;5.502;2023-11-19T03:03:01;13.00;99.90
13982;DHT22;7065;50.880;5.502;2023-11-19T03:05:42;13.00;99.90
13982;DHT22;7065;50.880;5.502;2023-11-19T03:08:10;13.00;99.90
13982;DHT22;7065;50.880;5.502;2023-11-19T03:10:35;13.00;99.90
13982;DHT22;7065;50.880;5.502;2023-11-19T03:13:01;13.00;99.90
13982;DHT22;7065;50.880;5.502;2023-11-19T03:15:27;12.90;99.90
13982;DHT22;7065;50.880;5.502;2023-11-19T03:17:53;12.90;99.90
13982;DHT22;7065;50.880;5.502;2023-11-19T03:20:19;12.80;99.90
13982;DHT22;7065;50.880;5.502;2023-11-19T03:22:46;12.70;99.90
13982;DHT22;7065;50.880;5.502;2023-11-19T03:25:12;12.70;99.90
13982;DHT22;7065;50.880;5.502;2023-11-19T03:27:39;12.70;99.90
13982;DHT22;7065;50.880;5.502;2023-11-19T03:30:10;12.70;99.90
13982;DHT22;7065;50.880;5.502;2023-11-19T03:32:36;12.70;99.90
13982;DHT22;7065;50.880;5.502;2023-11-19T03:35:02;12.60;99.90
13982;DHT22;7065;50.880;5.502;2023-11-19T03:37:30;12.50;99.90
13982;DHT22;7065;50.880;5.502;2023-11-19T03:39:57;12.50;99.90
13982;DHT22;7065;50.880;5.502;2023-11-19T03:42:28;12.50;99.90
13982;DHT22;7065;50.880;5.502;2023-11-19T03:44:56;12.40;99.90
13982;DHT22;7065;50.880;5.502;2023-11-19T03:47:21;12.40;99.90
13982;DHT22;7065;50.880;5.502;2023-11-19T03:49:49;12.40;99.90
13982;DHT22;7065;50.880;5.502;2023-11-19T03:52:15;12.30;99.90
13982;DHT22;7065;50.880;5.502;2023-11-19T03:54:40;12.30;99.90
13982;DHT22;7065;50.880;5.502;2023-11-19T03:57:06;12.20;99.90
13982;DHT22;7065;50.880;5.502;2023-11-19T03:59:32;12.20;99.90
13982;DHT22;7065;50.880;5.502;2023-11-19T04:01:59;12.10;99.90
13982;DHT22;7065;50.880;5.502;2023-11-19T04:04:26;12.10;99.90
13982;DHT22;7065;50.880;5.502;2023-11-19T04:06:53;12.20;99.90
13982;DHT22;7065;50.880;5.502;2023-11-19T04:09:19;12.20;99.90
13982;DHT22;7065;50.880;5.502;2023-11-19T04:11:45;12.10;99.90
13982;DHT22;7065;50.880;5.502;2023-11-19T04:14:12;12.20;99.90
13982;DHT22;7065;50.880;5.502;2023-11-19T04:16:39;12.20;99.90
13982;DHT22;7065;50.880;5.502;2023-11-19T04:19:04;12.20;99.90
13982;DHT22;7065;50.880;5.502;2023-11-19T04:21:30;12.20;99.90
13982;DHT22;7065;50.880;5.502;2023-11-19T04:23:56;12.10;99.90
13982;DHT22;7065;50.880;5.502;2023-11-19T04:26:22;12.00;99.90
13982;DHT22;7065;50.880;5.502;2023-11-19T04:28:48;12.00;99.90
13982;DHT22;7065;50.880;5.502;2023-11-19T04:31:15;12.00;99.90
13982;DHT22;7065;50.880;5.502;2023-11-19T04:33:42;12.00;99.90
13982;DHT22;7065;50.880;5.502;2023-11-19T04:36:09;12.00;99.90
13982;DHT22;7065;50.880;5.502;2023-11-19T04:38:35;11.90;99.90
13982;DHT22;7065;50.880;5.502;2023-11-19T04:41:01;11.90;99.90
13982;DHT22;7065;50.880;5.502;2023-11-19T04:43:26;11.90;99.90
13982;DHT22;7065;50.880;5.502;2023-11-19T04:45:53;11.90;99.90
13982;DHT22;7065;50.880;5.502;2023-11-19T04:48:19;11.90;99.90
13982;DHT22;7065;50.880;5.502;2023-11-19T04:50:44;11.90;99.90
13982;DHT22;7065;50.880;5.502;2023-11-19T04:53:10;11.90;99.90
13982;DHT22;7065;50.880;5.502;2023-11-19T04:55:37;11.90;99.90
13982;DHT22;7065;50.880;5.502;2023-11-19T04:58:02;11.80;99.90
13982;DHT22;7065;50.880;5.502;2023-11-19T05:00:28;11.80;99.90
13982;DHT22;7065;50.880;5.502;2023-11-19T05:02:54;11.70;99.90
13982;DHT22;7065;50.880;5.502;2023-11-19T05:05:19;11.80;99.90
13982;DHT22;7065;50.880;5.502;2023-11-19T05:07:45;11.80;99.90
13982;DHT22;7065;50.880;5.502;2023-11-19T05:10:12;11.70;99.90
13982;DHT22;7065;50.880;5.502;2023-11-19T05:12:37;11.80;99.90
13982;DHT22;7065;50.880;5.502;2023-11-19T05:15:04;11.90;99.90
13982;DHT22;7065;50.880;5.502;2023-11-19T05:17:30;11.90;99.90
13982;DHT22;7065;50.880;5.502;2023-11-19T05:19:56;11.90;99.90
13982;DHT22;7065;50.880;5.502;2023-11-19T05:22:22;11.90;99.90
13982;DHT22;7065;50.880;5.502;2023-11-19T05:24:48;12.00;99.90
13982;DHT22;7065;50.880;5.502;2023-11-19T05:27:15;11.90;99.90
13982;DHT22;7065;50.880;5.502;2023-11-19T05:29:41;11.90;99.90
13982;DHT22;7065;50.880;5.502;2023-11-19T05:32:08;12.00;99.90
13982;DHT22;7065;50.880;5.502;2023-11-19T05:34:33;12.00;99.90
13982;DHT22;7065;50.880;5.502;2023-11-19T05:36:59;11.90;99.90
13982;DHT22;7065;50.880;5.502;2023-11-19T05:39:25;11.90;99.90
13982;DHT22;7065;50.880;5.502;2023-11-19T05:41:51;11.90;99.90
13982;DHT22;7065;50.880;5.502;2023-11-19T05:44:17;11.80;99.90
13982;DHT22;7065;50.880;5.502;2023-11-19T05:46:43;11.80;99.90
13982;DHT22;7065;50.880;5.502;2023-11-19T05:49:11;11.90;99.90
13982;DHT22;7065;50.880;5.502;2023-11-19T05:51:38;11.90;99.90
13982;DHT22;7065;50.880;5.502;2023-11-19T05:54:06;11.90;99.90
13982;DHT22;7065;50.880;5.502;2023-11-19T05:56:33;11.90;99.90
13982;DHT22;7065;50.880;5.502;2023-11-19T05:58:59;11.80;99.90
13982;DHT22;7065;50.880;5.502;2023-11-19T06:01:26;11.80;99.90
13982;DHT22;7065;50.880;5.502;2023-11-19T06:03:52;11.80;99.90
13982;DHT22;7065;50.880;5.502;2023-11-19T06:06:19;11.80;99.90
13982;DHT22;7065;50.880;5.502;2023-11-19T06:08:44;11.70;99.90
13982;DHT22;7065;50.880;5.502;2023-11-19T06:11:11;11.70;99.90
13982;DHT22;7065;50.880;5.502;2023-11-19T06:13:44;11.70;99.90
13982;DHT22;7065;50.880;5.502;2023-11-19T06:16:09;11.60;99.90
13982;DHT22;7065;50.880;5.502;2023-11-19T06:18:36;11.60;99.90
13982;DHT22;7065;50.880;5.502;2023-11-19T06:21:02;11.60;99.90
13982;DHT22;7065;50.880;5.502;2023-11-19T06:23:28;11.60;99.90
13982;DHT22;7065;50.880;5.502;2023-11-19T06:25:53;11.50;99.90
13982;DHT22;7065;50.880;5.502;2023-11-19T06:28:20;11.50;99.90
13982;DHT22;7065;50.880;5.502;2023-11-19T06:30:45;11.50;99.90
13982;DHT22;7065;50.880;5.502;2023-11-19T06:33:14;11.50;99.90
13982;DHT22;7065;50.880;5.502;2023-11-19T06:35:40;11.40;99.90
13982;DHT22;7065;50.880;5.502;2023-11-19T06:38:06;11.40;99.90
13982;DHT22;7065;50.880;5.502;2023-11-19T06:40:33;11.40;99.90
13982;DHT22;7065;50.880;5.502;2023-11-19T06:43:00;11.30;99.90
13982;DHT22;7065;50.880;5.502;2023-11-19T06:45:26;11.30;99.90
13982;DHT22;7065;50.880;5.502;2023-11-19T06:47:52;11.30;99.90
13982;DHT22;7065;50.880;5.502;2023-11-19T06:50:18;11.40;99.90
13982;DHT22;7065;50.880;5.502;2023-11-19T06:52:44;11.40;99.90
13982;DHT22;7065;50.880;5.502;2023-11-19T06:55:10;11.50;99.90
13982;DHT22;7065;50.880;5.502;2023-11-19T06:57:36;11.50;99.90
13982;DHT22;7065;50.880;5.502;2023-11-19T07:00:03;11.50;99.90
13982;DHT22;7065;50.880;5.502;2023-11-19T07:02:31;11.40;99.90
13982;DHT22;7065;50.880;5.502;2023-11-19T07:04:56;11.40;99.90
13982;DHT22;7065;50.880;5.502;2023-11-19T07:07:22;11.40;99.90
13982;DHT22;7065;50.880;5.502;2023-11-19T07:09:48;11.40;99.90
13982;DHT22;7065;50.880;5.502;2023-11-19T07:12:14;11.40;99.90
13982;DHT22;7065;50.880;5.502;2023-11-19T07:14:40;11.40;99.90
13982;DHT22;7065;50.880;5.502;2023-11-19T07:17:07;11.30;99.90
13982;DHT22;7065;50.880;5.502;2023-11-19T07:19:34;11.30;99.90
13982;DHT22;7065;50.880;5.502;2023-11-19T07:22:01;11.30;99.90
13982;DHT22;7065;50.880;5.502;2023-11-19T07:24:27;11.30;99.90
13982;DHT22;7065;50.880;5.502;2023-11-19T07:26:53;11.20;99.90
13982;DHT22;7065;50.880;5.502;2023-11-19T07:29:19;11.30;99.90
13982;DHT22;7065;50.880;5.502;2023-11-19T07:31:50;11.30;99.90
13982;DHT22;7065;50.880;5.502;2023-11-19T07:34:16;11.30;99.90
13982;DHT22;7065;50.880;5.502;2023-11-19T07:36:42;11.30;99.90
13982;DHT22;7065;50.880;5.502;2023-11-19T07:39:07;11.20;99.90
13982;DHT22;7065;50.880;5.502;2023-11-19T07:41:34;11.30;99.90
13982;DHT22;7065;50.880;5.502;2023-11-19T07:44:00;11.20;99.90
13982;DHT22;7065;50.880;5.502;2023-11-19T07:46:26;11.30;99.90
13982;DHT22;7065;50.880;5.502;2023-11-19T07:48:53;11.20;99.90
13982;DHT22;7065;50.880;5.502;2023-11-19T07:51:18;11.30;99.90
13982;DHT22;7065;50.880;5.502;2023-11-19T07:53:44;11.20;99.90
13982;DHT22;7065;50.880;5.502;2023-11-19T07:56:10;11.20;99.90
13982;DHT22;7065;50.880;5.502;2023-11-19T07:58:36;11.20;99.90
13982;DHT22;7065;50.880;5.502;2023-11-19T08:01:02;11.20;99.90
13982;DHT22;7065;50.880;5.502;2023-11-19T08:03:28;11.20;99.90
13982;DHT22;7065;50.880;5.502;2023-11-19T08:05:58;11.20;99.90
13982;DHT22;7065;50.880;5.502;2023-11-19T08:08:24;11.20;99.90
13982;DHT22;7065;50.880;5.502;2023-11-19T08:10:49;11.30;99.90
13982;DHT22;7065;50.880;5.502;2023-11-19T08:13:17;11.30;99.90
13982;DHT22;7065;50.880;5.502;2023-11-19T08:15:43;11.40;99.90
13982;DHT22;7065;50.880;5.502;2023-11-19T08:18:09;11.40;99.90
13982;DHT22;7065;50.880;5.502;2023-11-19T08:20:35;11.40;99.90
13982;DHT22;7065;50.880;5.502;2023-11-19T08:23:02;11.40;99.90
13982;DHT22;7065;50.880;5.502;2023-11-19T08:25:29;11.50;99.90
13982;DHT22;7065;50.880;5.502;2023-11-19T08:27:54;11.50;99.90
13982;DHT22;7065;50.880;5.502;2023-11-19T08:30:21;11.50;99.90
13982;DHT22;7065;50.880;5.502;2023-11-19T08:32:46;11.60;99.90
13982;DHT22;7065;50.880;5.502;2023-11-19T08:35:12;11.60;99.90
13982;DHT22;7065;50.880;5.502;2023-11-19T08:37:38;11.60;99.90
13982;DHT22;7065;50.880;5.502;2023-11-19T08:40:04;11.60;99.90
13982;DHT22;7065;50.880;5.502;2023-11-19T08:42:30;11.60;99.90
13982;DHT22;7065;50.880;5.502;2023-11-19T08:44:56;11.70;99.90
13982;DHT22;7065;50.880;5.502;2023-11-19T08:47:22;11.70;99.90
13982;DHT22;7065;50.880;5.502;2023-11-19T08:49:51;11.80;99.90
13982;DHT22;7065;50.880;5.502;2023-11-19T08:52:17;11.80;99.90
13982;DHT22;7065;50.880;5.502;2023-11-19T08:54:43;11.80;99.90
13982;DHT22;7065;50.880;5.502;2023-11-19T08:57:09;11.90;99.90
13982;DHT22;7065;50.880;5.502;2023-11-19T08:59:35;11.90;99.90
13982;DHT22;7065;50.880;5.502;2023-11-19T09:02:00;11.90;99.90
13982;DHT22;7065;50.880;5.502;2023-11-19T09:04:27;12.00;99.90
13982;DHT22;7065;50.880;5.502;2023-11-19T09:06:53;12.00;99.90
13982;DHT22;7065;50.880;5.502;2023-11-19T09:09:19;12.00;99.90
13982;DHT22;7065;50.880;5.502;2023-11-19T09:11:44;12.10;99.90
13982;DHT22;7065;50.880;5.502;2023-11-19T09:14:10;12.10;99.90
13982;DHT22;7065;50.880;5.502;2023-11-19T09:16:36;12.10;99.90
13982;DHT22;7065;50.880;5.502;2023-11-19T09:19:02;12.10;99.90
13982;DHT22;7065;50.880;5.502;2023-11-19T09:21:28;12.10;99.90
13982;DHT22;7065;50.880;5.502;2023-11-19T09:23:57;12.10;99.90
13982;DHT22;7065;50.880;5.502;2023-11-19T09:26:24;12.10;99.90
13982;DHT22;7065;50.880;5.502;2023-11-19T09:28:49;12.20;99.90
13982;DHT22;7065;50.880;5.502;2023-11-19T09:31:16;12.30;99.90
13982;DHT22;7065;50.880;5.502;2023-11-19T09:33:42;12.30;99.90
13982;DHT22;7065;50.880;5.502;2023-11-19T09:36:08;12.30;99.90
13982;DHT22;7065;50.880;5.502;2023-11-19T09:38:34;12.40;99.90
13982;DHT22;7065;50.880;5.502;2023-11-19T09:41:07;12.50;99.90
13982;DHT22;7065;50.880;5.502;2023-11-19T09:43:38;12.60;99.90
13982;DHT22;7065;50.880;5.502;2023-11-19T09:46:05;12.50;99.90
13982;DHT22;7065;50.880;5.502;2023-11-19T09:48:36;12.60;99.90
13982;DHT22;7065;50.880;5.502;2023-11-19T09:51:07;12.60;99.90
13982;DHT22;7065;50.880;5.502;2023-11-19T09:53:33;12.60;99.90
13982;DHT22;7065;50.880;5.502;2023-11-19T09:56:00;12.60;99.90
13982;DHT22;7065;50.880;5.502;2023-11-19T09:58:29;12.40;99.90
13982;DHT22;7065;50.880;5.502;2023-11-19T10:00:55;12.30;99.90
13982;DHT22;7065;50.880;5.502;2023-11-19T10:03:24;12.20;99.90
13982;DHT22;7065;50.880;5.502;2023-11-19T10:05:50;12.20;99.90
13982;DHT22;7065;50.880;5.502;2023-11-19T10:08:15;12.20;99.90
13982;DHT22;7065;50.880;5.502;2023-11-19T10:10:42;12.40;99.90
13982;DHT22;7065;50.880;5.502;2023-11-19T10:13:08;12.50;99.90
13982;DHT22;7065;50.880;5.502;2023-11-19T10:15:37;12.50;99.90
13982;DHT22;7065;50.880;5.502;2023-11-19T10:18:03;12.60;99.90
13982;DHT22;7065;50.880;5.502;2023-11-19T10:20:41;12.60;99.90
13982;DHT22;7065;50.880;5.502;2023-11-19T10:23:07;12.70;99.90
13982;DHT22;7065;50.880;5.502;2023-11-19T10:25:33;12.60;99.90
13982;DHT22;7065;50.880;5.502;2023-11-19T10:27:59;12.70;99.90
13982;DHT22;7065;50.880;5.502;2023-11-19T10:30:29;12.70;99.90
13982;DHT22;7065;50.880;5.502;2023-11-19T10:33:08;12.80;99.90
13982;DHT22;7065;50.880;5.502;2023-11-19T10:35:58;12.90;99.90
13982;DHT22;7065;50.880;5.502;2023-11-19T10:38:23;13.00;99.90
13982;DHT22;7065;50.880;5.502;2023-11-19T10:40:50;13.00;99.90
13982;DHT22;7065;50.880;5.502;2023-11-19T10:43:20;12.90;99.90
13982;DHT22;7065;50.880;5.502;2023-11-19T10:45:51;12.90;99.90
13982;DHT22;7065;50.880;5.502;2023-11-19T10:48:17;12.80;99.90
13982;DHT22;7065;50.880;5.502;2023-11-19T10:50:44;12.80;99.90
13982;DHT22;7065;50.880;5.502;2023-11-19T10:53:12;12.80;99.90
13982;DHT22;7065;50.880;5.502;2023-11-19T10:55:41;12.80;99.90
13982;DHT22;7065;50.880;5.502;2023-11-19T10:58:10;12.90;99.90
13982;DHT22;7065;50.880;5.502;2023-11-19T11:00:43;12.90;99.90
13982;DHT22;7065;50.880;5.502;2023-11-19T11:03:31;13.00;99.90
13982;DHT22;7065;50.880;5.502;2023-11-19T11:06:03;13.10;99.90
13982;DHT22;7065;50.880;5.502;2023-11-19T11:08:30;13.10;99.90
13982;DHT22;7065;50.880;5.502;2023-11-19T11:10:56;13.10;99.90
13982;DHT22;7065;50.880;5.502;2023-11-19T11:13:24;13.10;99.90
13982;DHT22;7065;50.880;5.502;2023-11-19T11:15:51;13.10;99.90
13982;DHT22;7065;50.880;5.502;2023-11-19T11:18:17;13.10;99.90
13982;DHT22;7065;50.880;5.502;2023-11-19T11:20:46;13.20;99.90
13982;DHT22;7065;50.880;5.502;2023-11-19T11:23:28;13.20;99.90
13982;DHT22;7065;50.880;5.502;2023-11-19T11:26:21;13.20;99.90
13982;DHT22;7065;50.880;5.502;2023-11-19T11:32:11;13.20;99.90
13982;DHT22;7065;50.880;5.502;2023-11-19T11:34:58;13.30;99.90
13982;DHT22;7065;50.880;5.502;2023-11-19T11:37:43;13.20;99.90
13982;DHT22;7065;50.880;5.502;2023-11-19T11:40:15;13.30;99.90
13982;DHT22;7065;50.880;5.502;2023-11-19T11:42:41;13.30;99.90
13982;DHT22;7065;50.880;5.502;2023-11-19T11:45:09;13.20;99.90
13982;DHT22;7065;50.880;5.502;2023-11-19T11:50:20;13.10;99.90
13982;DHT22;7065;50.880;5.502;2023-11-19T11:55:27;12.90;99.90
13982;DHT22;7065;50.880;5.502;2023-11-19T11:57:54;12.90;99.90
13982;DHT22;7065;50.880;5.502;2023-11-19T12:00:39;12.90;99.90
13982;DHT22;7065;50.880;5.502;2023-11-19T12:03:06;13.00;99.90
13982;DHT22;7065;50.880;5.502;2023-11-19T12:05:33;13.00;99.90
13982;DHT22;7065;50.880;5.502;2023-11-19T12:08:03;12.90;99.90
13982;DHT22;7065;50.880;5.502;2023-11-19T12:10:31;12.90;99.90
13982;DHT22;7065;50.880;5.502;2023-11-19T12:13:01;12.90;99.90
13982;DHT22;7065;50.880;5.502;2023-11-19T12:15:27;13.00;99.90
13982;DHT22;7065;50.880;5.502;2023-11-19T12:17:54;13.00;99.90
13982;DHT22;7065;50.880;5.502;2023-11-19T12:20:24;13.00;99.90
13982;DHT22;7065;50.880;5.502;2023-11-19T12:22:50;13.00;99.90
13982;DHT22;7065;50.880;5.502;2023-11-19T12:25:17;13.10;99.90
13982;DHT22;7065;50.880;5.502;2023-11-19T12:27:50;13.20;99.90
13982;DHT22;7065;50.880;5.502;2023-11-19T12:30:23;13.40;99.90
13982;DHT22;7065;50.880;5.502;2023-11-19T12:32:53;13.60;99.90
13982;DHT22;7065;50.880;5.502;2023-11-19T12:35:19;13.60;99.90
13982;DHT22;7065;50.880;5.502;2023-11-19T12:37:50;13.50;99.90
13982;DHT22;7065;50.880;5.502;2023-11-19T12:40:21;13.50;99.90
13982;DHT22;7065;50.880;5.502;2023-11-19T12:42:52;13.50;99.90
13982;DHT22;7065;50.880;5.502;2023-11-19T12:45:19;13.40;99.90
13982;DHT22;7065;50.880;5.502;2023-11-19T12:47:47;13.40;99.90
13982;DHT22;7065;50.880;5.502;2023-11-19T12:50:14;13.50;99.90
13982;DHT22;7065;50.880;5.502;2023-11-19T12:52:41;13.60;99.90
13982;DHT22;7065;50.880;5.502;2023-11-19T12:55:26;13.70;99.90
13982;DHT22;7065;50.880;5.502;2023-11-19T12:57:52;13.80;99.90
13982;DHT22;7065;50.880;5.502;2023-11-19T13:00:24;13.70;99.90
13982;DHT22;7065;50.880;5.502;2023-11-19T13:02:52;13.70;99.90
13982;DHT22;7065;50.880;5.502;2023-11-19T13:08:06;13.80;99.90
13982;DHT22;7065;50.880;5.502;2023-11-19T13:10:53;13.80;99.90
13982;DHT22;7065;50.880;5.502;2023-11-19T13:13:21;13.70;99.90
13982;DHT22;7065;50.880;5.502;2023-11-19T13:15:47;13.60;99.90
13982;DHT22;7065;50.880;5.502;2023-11-19T13:18:16;13.50;99.90
13982;DHT22;7065;50.880;5.502;2023-11-19T13:20:42;13.40;99.90
13982;DHT22;7065;50.880;5.502;2023-11-19T13:23:08;13.40;99.90
13982;DHT22;7065;50.880;5.502;2023-11-19T13:25:34;13.30;99.90
13982;DHT22;7065;50.880;5.502;2023-11-19T13:28:00;13.20;99.90
13982;DHT22;7065;50.880;5.502;2023-11-19T13:30:26;13.10;99.90
13982;DHT22;7065;50.880;5.502;2023-11-19T13:32:52;13.00;99.90
13982;DHT22;7065;50.880;5.502;2023-11-19T13:35:20;12.90;99.90
13982;DHT22;7065;50.880;5.502;2023-11-19T13:37:46;12.70;99.90
13982;DHT22;7065;50.880;5.502;2023-11-19T13:40:12;12.70;99.90
13982;DHT22;7065;50.880;5.502;2023-11-19T13:42:42;12.60;99.90
13982;DHT22;7065;50.880;5.502;2023-11-19T13:45:11;12.60;99.90
13982;DHT22;7065;50.880;5.502;2023-11-19T13:47:45;12.60;99.90
13982;DHT22;7065;50.880;5.502;2023-11-19T13:50:15;12.70;99.90
13982;DHT22;7065;50.880;5.502;2023-11-19T13:52:44;12.70;99.90
13982;DHT22;7065;50.880;5.502;2023-11-19T13:55:12;12.70;99.90
13982;DHT22;7065;50.880;5.502;2023-11-19T13:57:39;12.70;99.90
13982;DHT22;7065;50.880;5.502;2023-11-19T14:00:06;12.80;99.90
13982;DHT22;7065;50.880;5.502;2023-11-19T14:02:36;12.80;99.90
13982;DHT22;7065;50.880;5.502;2023-11-19T14:05:02;12.90;99.90
13982;DHT22;7065;50.880;5.502;2023-11-19T14:07:28;12.80;99.90
13982;DHT22;7065;50.880;5.502;2023-11-19T14:09:54;12.80;99.90
13982;DHT22;7065;50.880;5.502;2023-11-19T14:12:20;12.70;99.90
13982;DHT22;7065;50.880;5.502;2023-11-19T14:14:46;12.70;99.90
13982;DHT22;7065;50.880;5.502;2023-11-19T14:17:11;12.70;99.90
13982;DHT22;7065;50.880;5.502;2023-11-19T14:19:38;12.70;99.90
13982;DHT22;7065;50.880;5.502;2023-11-19T14:22:04;12.70;99.90
13982;DHT22;7065;50.880;5.502;2023-11-19T14:24:31;12.60;99.90
13982;DHT22;7065;50.880;5.502;2023-11-19T14:26:56;12.60;99.90
13982;DHT22;7065;50.880;5.502;2023-11-19T14:29:24;12.60;99.90
13982;DHT22;7065;50.880;5.502;2023-11-19T14:31:52;12.50;99.90
13982;DHT22;7065;50.880;5.502;2023-11-19T14:34:19;12.50;99.90
13982;DHT22;7065;50.880;5.502;2023-11-19T14:36:45;12.40;99.90
13982;DHT22;7065;50.880;5.502;2023-11-19T14:39:11;12.40;99.90
13982;DHT22;7065;50.880;5.502;2023-11-19T14:41:37;12.40;99.90
13982;DHT22;7065;50.880;5.502;2023-11-19T14:44:03;12.40;99.90
13982;DHT22;7065;50.880;5.502;2023-11-19T14:46:29;12.40;99.90
13982;DHT22;7065;50.880;5.502;2023-11-19T14:48:55;12.40;99.90
13982;DHT22;7065;50.880;5.502;2023-11-19T14:51:20;12.40;99.90
13982;DHT22;7065;50.880;5.502;2023-11-19T14:53:46;12.40;99.90
13982;DHT22;7065;50.880;5.502;2023-11-19T14:56:12;12.30;99.90
13982;DHT22;7065;50.880;5.502;2023-11-19T14:58:39;12.30;99.90
13982;DHT22;7065;50.880;5.502;2023-11-19T15:01:05;12.40;99.90
13982;DHT22;7065;50.880;5.502;2023-11-19T15:03:31;12.40;99.90
13982;DHT22;7065;50.880;5.502;2023-11-19T15:05:58;12.50;99.90
13982;DHT22;7065;50.880;5.502;2023-11-19T15:08:25;12.50;99.90
13982;DHT22;7065;50.880;5.502;2023-11-19T15:10:50;12.50;99.90
13982;DHT22;7065;50.880;5.502;2023-11-19T15:13:16;12.50;99.90
13982;DHT22;7065;50.880;5.502;2023-11-19T15:15:42;12.50;99.90
13982;DHT22;7065;50.880;5.502;2023-11-19T15:18:08;12.50;99.90
13982;DHT22;7065;50.880;5.502;2023-11-19T15:20:35;12.50;99.90
13982;DHT22;7065;50.880;5.502;2023-11-19T15:23:01;12.50;99.90
13982;DHT22;7065;50.880;5.502;2023-11-19T15:25:27;12.50;99.90
13982;DHT22;7065;50.880;5.502;2023-11-19T15:27:53;12.50;99.90
13982;DHT22;7065;50.880;5.502;2023-11-19T15:30:19;12.50;99.90
13982;DHT22;7065;50.880;5.502;2023-11-19T15:32:44;12.50;99.90
13982;DHT22;7065;50.880;5.502;2023-11-19T15:35:10;12.60;99.90
13982;DHT22;7065;50.880;5.502;2023-11-19T15:37:37;12.60;99.90
13982;DHT22;7065;50.880;5.502;2023-11-19T15:40:07;12.60;99.90
13982;DHT22;7065;50.880;5.502;2023-11-19T15:42:36;12.50;99.90
13982;DHT22;7065;50.880;5.502;2023-11-19T15:45:02;12.50;99.90
13982;DHT22;7065;50.880;5.502;2023-11-19T15:47:32;12.50;99.90
13982;DHT22;7065;50.880;5.502;2023-11-19T15:50:00;12.50;99.90
13982;DHT22;7065;50.880;5.502;2023-11-19T15:52:25;12.50;99.90
13982;DHT22;7065;50.880;5.502;2023-11-19T15:54:52;12.50;99.90
13982;DHT22;7065;50.880;5.502;2023-11-19T15:57:18;12.40;99.90